Detall de PIREP

Printer-friendly versionPDF version

[2012/10/14 13:29:00]
Flight IATA:CT1005
Pilot Number:037
Company ICAO:CAT
Aircraft Type:B752/E
PAX:84
Aircraft Registration:PAX
Departing Airport: ELLX
Destination Airport: EDDV
Alternate Airport:EDDH
Online: VATSIM
Route:ASMOX Y891 ROPUV L607 RUDUS Z10 GISEM N850 WRB
Flight Level:F220
No Slew and time accel
No pause
Crash detect
Detect pilot in Cockpit between each 30 and 45 minutes
13:29 Zero fuel Weight: 157048 Lbs, Fuel Weight: 16699 Lbs
13:29 VATSIM:ELLX 141250Z 05007KT 5000 RA SCT001 SCT003 BKN020 07/06 Q0999 TEMPO 4000 RA
13:29 VATSIM:EDDV 141250Z 21011KT 9999 SCT032 11/04 Q1000 NOSIG
13:38 Take-off
13:38 Take off Weight: 172840 Lbs
13:38 Wind: 052º @ 008 Knots Heading: 059º
13:38 POS N49º 37´ 27´´ E006º 12´ 16´´
13:38 Gear Up: 183 Knots
13:38 Flaps:2 at 183 Knots
13:38 Flaps:1 at 194 Knots
13:39 Flaps:0 at 206 Knots
13:48 TOC
13:48 Fuel Weight: 13248 Lb
13:53 Wind:155º@015 Knots Heading: 057º Ground Speed: 416 Knots Altitude 21604 ft
14:03 TOD
14:03 Fuel Weight: 11026 Lb
14:08 Wind:185º@026 Knots Heading: 053º Ground Speed: 346 Knots Altitude 14186 ft
14:22 Flaps:1 at 191 Knots
14:22 Flaps:2 at 185 Knots
14:23 Wind:213º@017 Knots Heading: 316º Ground Speed: 190 Knots Altitude 2979 ft
14:24 Flaps:3 at 169 Knots
14:24 Gear Down: 168 Knots
14:24 Flaps:4 at 153 Knots
14:26 Flaps:5 at 150 Knots
14:26 Flaps:6 at 151 Knots
14:27 TouchDown:Rate -219 ft/min Speed: 135 Knots
14:27 VATSIM:EDDV 141350Z 20012KT 9999 FEW032 BKN250 11/05 Q1000 NOSIG
14:27 Land
14:27 Wind:202º@012 Knots
14:27 Heading: 270º
14:27 Flight Duration: 00:49
14:27 Landing Weight: 166462 Lbs
14:27 POS N52º 28´ 03´´ E009º 40´ 41´´
14:33 Parking brakes on
14:33 Block to Block Duration: 00:55
14:33 Final Fuel: 8880 Lbls
14:33 Spent Fuel: 7819 Lbls
14:33 Flight Length: 232 NM
14:33 TOD Land Length: 78 NM

Exportar CSV

Powered by Drupal - Modified by Danger4k